createdAt,value
2023-07-25T00:00:09.171Z,0.57
2023-07-25T00:02:37.744Z,0.60
2023-07-25T00:05:06.682Z,0.70
2023-07-25T00:07:36.553Z,1.08
2023-07-25T00:10:05.402Z,0.98
2023-07-25T00:12:33.965Z,0.95
2023-07-25T00:15:03.579Z,0.73
2023-07-25T00:17:32.398Z,1.25
2023-07-25T00:20:00.899Z,0.77
2023-07-25T00:22:29.491Z,0.80
2023-07-25T00:24:59.427Z,0.70
2023-07-25T00:27:27.954Z,0.52
2023-07-25T00:29:57.680Z,1.00
2023-07-25T00:32:26.257Z,0.75
2023-07-25T00:34:55.038Z,0.68
2023-07-25T00:37:24.945Z,0.43
2023-07-25T00:39:55.984Z,0.93
2023-07-25T00:42:31.576Z,1.20
2023-07-25T00:45:00.081Z,0.88
2023-07-25T00:47:28.872Z,0.75
2023-07-25T00:49:57.802Z,1.00
2023-07-25T00:52:27.239Z,0.85
2023-07-25T00:54:55.750Z,0.88
2023-07-25T00:57:24.305Z,0.70
2023-07-25T00:59:56.824Z,0.52
2023-07-25T01:02:26.084Z,0.70
2023-07-25T01:04:58.324Z,0.90
2023-07-25T01:07:27.869Z,0.77
2023-07-25T01:09:58.116Z,0.73
2023-07-25T01:12:28.300Z,0.73
2023-07-25T01:14:58.317Z,0.77
2023-07-25T01:17:28.429Z,1.13
2023-07-25T01:19:57.481Z,0.80
2023-07-25T01:22:28.663Z,0.68
2023-07-25T01:24:58.850Z,0.70
2023-07-25T01:27:27.909Z,0.70
2023-07-25T01:29:56.437Z,0.95
2023-07-25T01:32:24.973Z,1.05
2023-07-25T01:34:53.488Z,0.60
2023-07-25T01:37:23.412Z,0.80
2023-07-25T01:39:51.958Z,1.00
2023-07-25T01:42:21.922Z,0.70
2023-07-25T01:44:50.497Z,0.90
2023-07-25T01:47:19.074Z,1.00
2023-07-25T01:49:47.757Z,0.95
2023-07-25T01:52:16.289Z,0.95
2023-07-25T01:54:45.872Z,0.68
2023-07-25T01:57:14.422Z,0.80
2023-07-25T01:59:44.348Z,1.20
2023-07-25T02:02:13.663Z,1.00
2023-07-25T02:04:43.734Z,0.70
2023-07-25T02:07:12.539Z,0.60
2023-07-25T02:09:41.244Z,0.93
2023-07-25T02:12:11.129Z,1.00
2023-07-25T02:14:40.146Z,0.70
2023-07-25T02:17:10.237Z,0.80
2023-07-25T02:19:39.612Z,0.75
2023-07-25T02:22:08.611Z,0.77
2023-07-25T02:24:37.273Z,1.10
2023-07-25T02:27:09.690Z,0.70
2023-07-25T02:29:40.999Z,0.70
2023-07-25T02:32:11.438Z,0.63
2023-07-25T02:34:40.559Z,1.02
2023-07-25T02:37:09.598Z,0.75
2023-07-25T02:39:38.095Z,0.57
2023-07-25T02:42:07.071Z,0.57
2023-07-25T02:44:35.629Z,0.70
2023-07-25T02:47:04.631Z,0.68
2023-07-25T02:49:35.463Z,0.93
2023-07-25T02:52:04.432Z,0.65
2023-07-25T02:54:33.031Z,0.80
2023-07-25T02:57:01.587Z,0.77
2023-07-25T02:59:31.427Z,0.73
2023-07-25T03:02:00.033Z,1.10
2023-07-25T03:04:28.594Z,1.92
2023-07-25T03:06:58.555Z,1.00
2023-07-25T03:09:27.119Z,0.85
2023-07-25T03:11:55.644Z,0.80
2023-07-25T03:14:24.316Z,0.70
2023-07-25T03:16:53.268Z,0.82
2023-07-25T03:19:22.146Z,0.80
2023-07-25T03:21:50.900Z,0.88
2023-07-25T03:24:20.898Z,0.60
2023-07-25T03:26:50.301Z,0.70
2023-07-25T03:29:19.472Z,0.40
2023-07-25T03:31:49.374Z,0.85
2023-07-25T03:34:19.087Z,1.02
2023-07-25T03:36:49.826Z,0.70
2023-07-25T03:39:18.545Z,1.15
2023-07-25T03:41:50.960Z,0.60
2023-07-25T03:44:20.579Z,0.80
2023-07-25T03:46:49.209Z,0.70
2023-07-25T03:49:19.253Z,0.70
2023-07-25T03:51:47.891Z,0.70
2023-07-25T03:54:16.755Z,0.90
2023-07-25T03:56:45.819Z,0.60
2023-07-25T03:59:17.535Z,0.93
2023-07-25T04:01:46.149Z,0.80
2023-07-25T04:04:14.795Z,1.10
2023-07-25T04:06:43.307Z,1.00
2023-07-25T04:09:11.819Z,1.35
2023-07-25T04:11:40.322Z,1.10
2023-07-25T04:14:08.852Z,0.70
2023-07-25T04:16:39.027Z,0.82
2023-07-25T04:19:07.630Z,1.17
2023-07-25T04:21:36.283Z,0.90
2023-07-25T04:24:06.543Z,0.88
2023-07-25T04:26:35.139Z,1.00
2023-07-25T04:29:03.731Z,0.88
2023-07-25T04:31:32.627Z,0.68
2023-07-25T04:34:02.815Z,1.15
2023-07-25T04:36:31.424Z,0.90
2023-07-25T04:39:00.073Z,0.70
2023-07-25T04:41:28.699Z,0.75
2023-07-25T04:43:57.273Z,1.73
2023-07-25T04:46:25.834Z,0.77
2023-07-25T04:48:54.439Z,1.33
2023-07-25T04:51:24.455Z,0.82
2023-07-25T04:53:53.024Z,0.80
2023-07-25T04:56:24.231Z,1.00
2023-07-25T04:58:52.710Z,0.90
2023-07-25T05:01:21.201Z,0.80
2023-07-25T05:03:49.699Z,0.88
2023-07-25T05:06:18.192Z,1.10
2023-07-25T05:08:48.037Z,0.73
2023-07-25T05:11:16.612Z,1.00
2023-07-25T05:13:45.088Z,1.10
2023-07-25T05:16:13.619Z,0.80
2023-07-25T05:18:42.152Z,0.95
2023-07-25T05:21:10.617Z,1.30
2023-07-25T05:23:39.106Z,0.90
2023-07-25T05:26:09.006Z,0.73
2023-07-25T05:28:37.552Z,0.80
2023-07-25T05:31:06.127Z,1.05
2023-07-25T05:33:34.789Z,0.85
2023-07-25T05:36:03.857Z,0.95
2023-07-25T05:38:32.428Z,1.23
2023-07-25T05:41:02.049Z,1.23
2023-07-25T05:43:31.945Z,1.00
2023-07-25T05:46:00.526Z,2.22
2023-07-25T05:48:29.204Z,0.95
2023-07-25T05:50:57.694Z,1.17
2023-07-25T05:53:26.272Z,1.33
2023-07-25T05:55:55.112Z,1.08
2023-07-25T05:58:23.781Z,1.02
2023-07-25T06:00:53.686Z,1.02
2023-07-25T06:03:22.967Z,1.75
2023-07-25T06:05:51.506Z,0.80
2023-07-25T06:08:20.144Z,1.58
2023-07-25T06:10:48.737Z,0.77
2023-07-25T06:13:17.387Z,0.70
2023-07-25T06:15:46.226Z,1.00
2023-07-25T06:18:16.184Z,0.95
2023-07-25T06:20:44.721Z,0.98
2023-07-25T06:23:13.227Z,1.10
2023-07-25T06:25:41.879Z,0.65
2023-07-25T06:28:12.673Z,0.95
2023-07-25T06:30:41.177Z,0.82
2023-07-25T06:33:09.719Z,0.80
2023-07-25T06:35:39.596Z,0.80
2023-07-25T06:38:08.085Z,0.88
2023-07-25T06:40:36.563Z,0.90
2023-07-25T06:43:05.079Z,1.98
2023-07-25T06:45:33.799Z,1.30
2023-07-25T06:48:02.320Z,1.08
2023-07-25T06:50:33.727Z,0.80
2023-07-25T06:53:04.415Z,1.20
2023-07-25T06:55:36.036Z,1.08
2023-07-25T06:58:04.545Z,0.98
2023-07-25T07:00:33.049Z,1.55
2023-07-25T07:03:01.833Z,1.00
2023-07-25T07:05:31.199Z,1.02
2023-07-25T07:08:00.929Z,1.25
2023-07-25T07:10:33.523Z,1.00
2023-07-25T07:13:02.248Z,0.95
2023-07-25T07:15:30.739Z,1.13
2023-07-25T07:17:59.290Z,1.50
2023-07-25T07:20:30.181Z,1.08
2023-07-25T07:22:58.669Z,1.95
2023-07-25T07:25:27.276Z,1.48
2023-07-25T07:27:57.137Z,1.40
2023-07-25T07:30:25.701Z,1.17
2023-07-25T07:32:54.197Z,2.03
2023-07-25T07:35:22.714Z,1.35
2023-07-25T07:37:51.401Z,1.98
2023-07-25T07:40:19.982Z,1.70
2023-07-25T07:42:50.214Z,1.63
2023-07-25T07:45:20.210Z,1.13
2023-07-25T07:47:48.789Z,1.67
2023-07-25T07:50:17.347Z,1.52
2023-07-25T07:52:45.929Z,1.40
2023-07-25T07:55:14.985Z,1.48
2023-07-25T07:57:44.603Z,1.60
2023-07-25T08:00:16.502Z,1.55
2023-07-25T08:02:49.713Z,1.70
2023-07-25T08:05:18.702Z,2.08
2023-07-25T08:07:47.389Z,2.08
2023-07-25T08:10:16.197Z,1.58
2023-07-25T08:12:44.687Z,2.13
2023-07-25T08:15:13.698Z,1.90
2023-07-25T08:17:42.284Z,2.30
2023-07-25T08:20:14.550Z,1.90
2023-07-25T08:22:43.113Z,2.38
2023-07-25T08:25:12.730Z,2.10
2023-07-25T08:27:41.229Z,2.00
2023-07-25T08:30:10.722Z,1.88
2023-07-25T08:32:39.320Z,2.22
2023-07-25T08:35:08.408Z,2.05
2023-07-25T08:37:38.435Z,1.65
2023-07-25T08:40:08.344Z,2.65
2023-07-25T08:42:39.256Z,2.35
2023-07-25T08:45:08.745Z,1.92
2023-07-25T08:47:41.958Z,2.30
2023-07-25T08:50:15.769Z,1.92
2023-07-25T08:52:50.843Z,2.00
2023-07-25T08:55:19.550Z,2.13
2023-07-25T08:57:48.927Z,1.92
2023-07-25T09:00:19.648Z,2.08
2023-07-25T09:02:53.729Z,2.63
2023-07-25T09:05:22.940Z,2.05
2023-07-25T09:07:52.889Z,2.17
2023-07-25T09:10:21.706Z,2.33
2023-07-25T09:12:50.321Z,1.95
2023-07-25T09:15:19.081Z,2.55
2023-07-25T09:17:47.703Z,2.40
2023-07-25T09:20:16.600Z,2.35
2023-07-25T09:22:48.438Z,2.30
2023-07-25T09:25:18.535Z,2.60
2023-07-25T09:27:47.796Z,1.95
2023-07-25T09:30:16.589Z,2.75
2023-07-25T09:32:48.920Z,1.90
2023-07-25T09:35:18.007Z,2.42
2023-07-25T09:37:53.593Z,2.75
2023-07-25T09:40:24.111Z,1.77
2023-07-25T09:42:52.989Z,2.67
2023-07-25T09:45:22.081Z,1.83
2023-07-25T09:47:53.952Z,2.10
2023-07-25T09:50:27.468Z,2.30
2023-07-25T09:52:56.106Z,2.77
2023-07-25T09:55:26.036Z,2.58
2023-07-25T09:57:55.428Z,1.98
2023-07-25T10:00:25.054Z,2.10
2023-07-25T10:02:54.690Z,2.25
2023-07-25T10:05:23.649Z,3.47
2023-07-25T10:07:56.864Z,4.10
2023-07-25T10:12:57.343Z,5.40
2023-07-25T10:15:26.490Z,3.60
2023-07-25T10:18:03.376Z,3.63
2023-07-25T10:20:32.450Z,3.35
2023-07-25T10:23:12.247Z,3.50
2023-07-25T10:25:42.648Z,2.60
2023-07-25T10:28:13.045Z,3.22
2023-07-25T10:30:46.105Z,3.28
2023-07-25T10:33:15.653Z,3.08
2023-07-25T10:35:50.452Z,3.03
2023-07-25T10:38:34.366Z,3.40
2023-07-25T10:41:14.287Z,3.43
2023-07-25T10:44:02.542Z,3.00
2023-07-25T10:46:33.225Z,2.55
2023-07-25T10:49:03.203Z,2.47
2023-07-25T10:51:52.579Z,3.03
2023-07-25T10:54:22.411Z,3.58
2023-07-25T10:57:15.751Z,2.95
2023-07-25T11:00:02.589Z,3.90
2023-07-25T11:02:33.057Z,3.35
2023-07-25T11:05:24.194Z,4.30
2023-07-25T11:07:54.769Z,4.30
2023-07-25T11:10:25.861Z,4.18
2023-07-25T11:12:57.901Z,3.47
2023-07-25T11:17:58.517Z,5.45
2023-07-25T11:20:27.094Z,4.35
2023-07-25T11:22:56.071Z,4.43
2023-07-25T11:25:24.642Z,5.05
2023-07-25T11:27:53.416Z,4.55
2023-07-25T11:30:23.409Z,4.70
2023-07-25T11:32:53.707Z,5.43
2023-07-25T11:35:25.585Z,5.25
2023-07-25T11:38:02.531Z,5.22
2023-07-25T11:40:32.855Z,4.55
2023-07-25T11:43:01.626Z,4.88
2023-07-25T11:45:31.833Z,3.95
2023-07-25T11:48:00.754Z,4.20
2023-07-25T11:50:33.182Z,3.67
2023-07-25T11:53:03.715Z,3.75
2023-07-25T11:55:32.695Z,3.70
2023-07-25T11:58:04.429Z,4.53
2023-07-25T12:00:42.747Z,3.60
2023-07-25T12:03:20.965Z,3.38
2023-07-25T12:05:56.805Z,3.08
2023-07-25T12:08:33.269Z,4.43
2023-07-25T12:11:03.589Z,2.53
2023-07-25T12:13:32.447Z,2.70
2023-07-25T12:16:03.259Z,2.25
2023-07-25T12:18:33.123Z,2.35
2023-07-25T12:21:06.224Z,2.08
2023-07-25T12:23:39.281Z,2.25
2023-07-25T12:26:09.722Z,2.63
2023-07-25T12:28:41.888Z,2.25
2023-07-25T12:31:12.638Z,1.88
2023-07-25T12:33:42.409Z,1.95
2023-07-25T12:36:11.075Z,1.80
2023-07-25T12:38:39.830Z,1.92
2023-07-25T12:41:08.950Z,2.13
2023-07-25T12:43:37.605Z,1.65
2023-07-25T12:46:06.498Z,1.80
2023-07-25T12:48:36.447Z,1.67
2023-07-25T12:51:05.346Z,2.65
2023-07-25T12:53:34.185Z,1.60
2023-07-25T12:56:02.733Z,1.65
2023-07-25T12:58:31.488Z,1.90
2023-07-25T13:01:00.044Z,2.22
2023-07-25T13:03:29.698Z,2.60
2023-07-25T13:05:59.672Z,2.35
2023-07-25T13:08:28.165Z,1.80
2023-07-25T13:10:56.875Z,1.42
2023-07-25T13:13:25.456Z,2.08
2023-07-25T13:15:54.213Z,1.77
2023-07-25T13:18:23.000Z,1.75
2023-07-25T13:20:52.942Z,1.63
2023-07-25T13:23:22.835Z,1.85
2023-07-25T13:25:51.821Z,1.25
2023-07-25T13:28:20.320Z,1.63
2023-07-25T13:30:48.964Z,1.40
2023-07-25T13:33:17.580Z,1.35
2023-07-25T13:35:46.176Z,1.40
2023-07-25T13:38:14.656Z,1.48
2023-07-25T13:40:44.601Z,2.03
2023-07-25T13:43:13.138Z,1.00
2023-07-25T13:45:52.161Z,1.10
2023-07-25T13:48:22.361Z,1.40
2023-07-25T13:50:54.701Z,1.08
2023-07-25T13:53:24.823Z,1.30
2023-07-25T13:55:54.827Z,1.60
2023-07-25T13:58:24.230Z,1.25
2023-07-25T14:00:53.401Z,1.13
2023-07-25T14:03:21.965Z,1.83
2023-07-25T14:05:50.556Z,1.20
2023-07-25T14:08:19.264Z,1.02
2023-07-25T14:10:47.849Z,1.50
2023-07-25T14:13:17.832Z,1.50
2023-07-25T14:15:46.847Z,1.60
2023-07-25T14:18:15.458Z,1.85
2023-07-25T14:20:44.034Z,1.70
2023-07-25T14:23:12.547Z,1.67
2023-07-25T14:25:41.088Z,1.90
2023-07-25T14:28:09.627Z,2.05
2023-07-25T14:30:39.505Z,1.90
2023-07-25T14:33:08.179Z,1.70
2023-07-25T14:35:36.816Z,1.63
2023-07-25T14:38:08.248Z,1.73
2023-07-25T14:40:37.313Z,1.92
2023-07-25T14:43:05.840Z,1.98
2023-07-25T14:45:36.444Z,1.38
2023-07-25T14:48:07.069Z,1.58
2023-07-25T14:50:35.861Z,1.60
2023-07-25T14:53:04.448Z,1.67
2023-07-25T14:55:33.102Z,2.10
2023-07-25T14:58:01.804Z,2.25
2023-07-25T15:00:32.093Z,1.52
2023-07-25T15:03:00.668Z,1.88
2023-07-25T15:05:30.609Z,1.55
2023-07-25T15:07:59.194Z,1.30
2023-07-25T15:10:27.983Z,2.35
2023-07-25T15:12:56.486Z,1.80
2023-07-25T15:15:25.115Z,1.90
2023-07-25T15:17:53.978Z,1.60
2023-07-25T15:20:24.074Z,1.40
2023-07-25T15:22:54.155Z,1.38
2023-07-25T15:25:22.872Z,1.58
2023-07-25T15:27:51.371Z,1.40
2023-07-25T15:30:20.428Z,1.25
2023-07-25T15:32:49.014Z,1.20
2023-07-25T15:35:18.511Z,1.30
2023-07-25T15:37:48.664Z,1.30
2023-07-25T15:40:18.707Z,1.75
2023-07-25T15:42:47.342Z,1.20
2023-07-25T15:45:15.917Z,1.42
2023-07-25T15:47:44.498Z,1.33
2023-07-25T15:50:13.059Z,1.77
2023-07-25T15:52:42.157Z,4.68
2023-07-25T15:55:10.836Z,4.60
2023-07-25T15:57:40.752Z,4.53
2023-07-25T16:00:11.040Z,3.10
2023-07-25T16:02:39.685Z,2.95
2023-07-25T16:05:08.583Z,1.92
2023-07-25T16:07:37.195Z,1.90
2023-07-25T16:10:06.740Z,1.83
2023-07-25T16:12:35.357Z,1.60
2023-07-25T16:15:06.019Z,1.67
2023-07-25T16:17:34.595Z,1.88
2023-07-25T16:20:04.637Z,1.85
2023-07-25T16:22:33.673Z,1.50
2023-07-25T16:25:02.413Z,1.38
2023-07-25T16:27:30.990Z,2.08
2023-07-25T16:30:00.374Z,1.30
2023-07-25T16:32:30.377Z,1.10
2023-07-25T16:34:59.500Z,1.50
2023-07-25T16:37:28.015Z,1.58
2023-07-25T16:39:56.658Z,1.50
2023-07-25T16:42:25.332Z,1.40
2023-07-25T16:44:55.700Z,1.25
2023-07-25T16:47:24.198Z,1.30
2023-07-25T16:49:54.151Z,1.45
2023-07-25T16:52:22.673Z,1.00
2023-07-25T16:54:51.221Z,1.25
2023-07-25T16:57:19.788Z,1.58
2023-07-25T16:59:49.956Z,0.90
2023-07-25T17:02:18.488Z,1.20
2023-07-25T17:04:47.043Z,1.30
2023-07-25T17:07:16.941Z,0.82
2023-07-25T17:09:46.032Z,0.98
2023-07-25T17:12:14.716Z,1.02
2023-07-25T17:14:43.991Z,0.90
2023-07-25T17:17:13.889Z,0.80
2023-07-25T17:19:42.826Z,0.95
2023-07-25T17:22:11.667Z,1.00
2023-07-25T17:24:41.731Z,1.00
2023-07-25T17:27:10.909Z,0.93
2023-07-25T17:29:40.121Z,0.80
2023-07-25T17:32:08.889Z,0.95
2023-07-25T17:34:38.388Z,0.73
2023-07-25T17:37:08.292Z,1.00
2023-07-25T17:39:37.042Z,1.10
2023-07-25T17:42:07.374Z,1.27
2023-07-25T17:44:35.979Z,1.17
2023-07-25T17:47:04.971Z,0.80
2023-07-25T17:49:34.326Z,0.75
2023-07-25T17:52:03.193Z,0.90
2023-07-25T17:54:32.657Z,0.80
2023-07-25T17:57:01.402Z,1.02
2023-07-25T17:59:32.761Z,0.80
2023-07-25T18:02:01.920Z,1.05
2023-07-25T18:04:31.037Z,0.82
2023-07-25T18:06:59.657Z,0.90
2023-07-25T18:09:28.405Z,0.93
2023-07-25T18:11:57.598Z,1.08
2023-07-25T18:14:26.381Z,0.90
2023-07-25T18:16:56.528Z,0.60
2023-07-25T18:19:25.377Z,0.80
2023-07-25T18:21:53.888Z,0.82
2023-07-25T18:24:22.501Z,0.80
2023-07-25T18:26:51.544Z,1.30
2023-07-25T18:29:20.119Z,0.93
2023-07-25T18:31:48.715Z,0.77
2023-07-25T18:34:19.010Z,0.85
2023-07-25T18:36:47.629Z,0.98
2023-07-25T18:39:16.137Z,0.93
2023-07-25T18:41:44.967Z,1.00
2023-07-25T18:44:14.137Z,0.80
2023-07-25T18:46:42.782Z,0.65
2023-07-25T18:49:11.534Z,0.80
2023-07-25T18:51:41.847Z,1.88
2023-07-25T18:54:10.560Z,0.80
2023-07-25T18:56:39.163Z,0.80
2023-07-25T18:59:07.667Z,0.70
2023-07-25T19:01:36.459Z,0.80
2023-07-25T19:04:05.104Z,1.30
2023-07-25T19:06:34.602Z,0.95
2023-07-25T19:09:05.142Z,0.90
2023-07-25T19:11:33.681Z,0.90
2023-07-25T19:14:02.194Z,0.75
2023-07-25T19:16:31.524Z,0.80
2023-07-25T19:19:00.635Z,0.90
2023-07-25T19:21:29.201Z,0.80
2023-07-25T19:23:56.763Z,0.93
2023-07-25T19:26:26.725Z,0.80
2023-07-25T19:28:55.296Z,0.68
2023-07-25T19:31:24.398Z,0.80
2023-07-25T19:33:53.042Z,0.95
2023-07-25T19:36:21.640Z,0.70
2023-07-25T19:38:50.158Z,0.80
2023-07-25T19:41:19.798Z,0.75
2023-07-25T19:43:49.742Z,0.77
2023-07-25T19:46:18.294Z,0.80
2023-07-25T19:48:47.512Z,1.05
2023-07-25T19:51:16.979Z,0.80
2023-07-25T19:53:48.380Z,0.65
2023-07-25T19:56:18.075Z,0.60
2023-07-25T19:58:47.629Z,0.77
2023-07-25T20:01:17.532Z,1.05
2023-07-25T20:03:46.248Z,0.52
2023-07-25T20:06:15.064Z,0.57
2023-07-25T20:08:43.557Z,0.70
2023-07-25T20:11:12.063Z,0.80
2023-07-25T20:13:40.611Z,0.63
2023-07-25T20:16:09.335Z,0.82
2023-07-25T20:18:39.288Z,0.80
2023-07-25T20:21:11.297Z,0.80
2023-07-25T20:23:40.460Z,0.98
2023-07-25T20:26:09.194Z,0.80
2023-07-25T20:28:37.752Z,0.82
2023-07-25T20:31:08.133Z,0.70
2023-07-25T20:33:37.274Z,0.50
2023-07-25T20:36:07.489Z,0.60
2023-07-25T20:38:36.606Z,0.50
2023-07-25T20:41:05.321Z,0.70
2023-07-25T20:43:33.930Z,0.57
2023-07-25T20:46:05.855Z,0.75
2023-07-25T20:48:36.087Z,0.63
2023-07-25T20:51:05.469Z,1.25
2023-07-25T20:53:35.878Z,0.68
2023-07-25T20:56:05.472Z,0.80
2023-07-25T20:58:34.048Z,0.50
2023-07-25T21:01:02.698Z,0.80
2023-07-25T21:03:31.323Z,0.70
2023-07-25T21:06:00.956Z,0.50
2023-07-25T21:08:29.540Z,0.90
2023-07-25T21:11:00.241Z,0.55
2023-07-25T21:13:28.748Z,0.60
2023-07-25T21:15:57.674Z,0.70
2023-07-25T21:18:26.534Z,0.70
2023-07-25T21:20:55.618Z,0.57
2023-07-25T21:23:25.779Z,0.52
2023-07-25T21:25:54.710Z,0.52
2023-07-25T21:28:24.913Z,0.65
2023-07-25T21:30:54.346Z,0.52
2023-07-25T21:33:25.169Z,0.55
2023-07-25T21:36:08.223Z,0.60
2023-07-25T21:38:36.813Z,0.68
2023-07-25T21:41:07.336Z,0.57
2023-07-25T21:43:38.137Z,0.50
2023-07-25T21:46:07.038Z,0.50
2023-07-25T21:48:36.215Z,0.70
2023-07-25T21:51:05.241Z,0.80
2023-07-25T21:53:34.292Z,0.68
2023-07-25T21:56:02.941Z,0.50
2023-07-25T21:58:31.717Z,0.60
2023-07-25T22:01:01.795Z,0.50
2023-07-25T22:03:31.084Z,0.50
2023-07-25T22:06:00.548Z,0.70
2023-07-25T22:08:29.207Z,0.80
2023-07-25T22:10:58.004Z,0.70
2023-07-25T22:13:26.840Z,0.70
2023-07-25T22:15:55.438Z,1.00
2023-07-25T22:18:25.401Z,1.13
2023-07-25T22:20:53.988Z,0.65
2023-07-25T22:23:22.704Z,0.75
2023-07-25T22:25:51.361Z,0.80
2023-07-25T22:28:19.838Z,0.70
2023-07-25T22:30:48.420Z,1.00
2023-07-25T22:33:16.920Z,0.50
2023-07-25T22:35:46.842Z,0.80
2023-07-25T22:38:15.367Z,0.65
2023-07-25T22:40:44.699Z,0.75
2023-07-25T22:43:13.326Z,0.75
2023-07-25T22:45:41.882Z,0.65
2023-07-25T22:48:10.489Z,1.08
2023-07-25T22:50:38.976Z,1.15
2023-07-25T22:53:08.839Z,1.13
2023-07-25T22:55:37.332Z,1.48
2023-07-25T22:58:05.805Z,0.80
2023-07-25T23:00:34.301Z,1.20
2023-07-25T23:03:02.903Z,0.75
2023-07-25T23:05:32.137Z,1.00
2023-07-25T23:08:00.642Z,0.70
2023-07-25T23:10:30.614Z,0.73
2023-07-25T23:12:59.092Z,0.70
2023-07-25T23:15:27.626Z,0.60
2023-07-25T23:17:56.159Z,0.90
2023-07-25T23:20:24.683Z,0.80
2023-07-25T23:22:53.239Z,0.90
2023-07-25T23:25:21.873Z,0.95
2023-07-25T23:27:51.817Z,0.50
2023-07-25T23:30:21.326Z,0.90
2023-07-25T23:32:49.876Z,0.90
2023-07-25T23:35:19.292Z,0.57
2023-07-25T23:37:47.900Z,0.57
2023-07-25T23:40:16.453Z,0.93
2023-07-25T23:42:45.007Z,0.50
2023-07-25T23:45:14.918Z,0.52
2023-07-25T23:47:43.802Z,0.60
2023-07-25T23:50:13.699Z,0.60
2023-07-25T23:52:42.191Z,0.68
2023-07-25T23:55:10.911Z,0.75
2023-07-25T23:57:39.479Z,0.68
